Time;durP1;ratioP1;P1;durP2;ratioP2;P2;SDS_P1;SDS_P2;PMS_P1;PMS_P2;Temp;Humidity;BMP_temperature;BMP_pressure;BME280_temperature;BME280_humidity;BME280_pressure;Samples;Min_cycle;Max_cycle;Signal;HPM_P1;HPM_P2
2022/02/28 00:01:02;;;;;;;;;;;;;;;;;;5092721;28;19924;-61
2022/02/28 00:03:28;;;;;;;;;;;;;;;;;;5092711;28;20270;-62
2022/02/28 00:05:55;;;;;;;;;;;;;;;;;;5092864;28;20274;-61
2022/02/28 00:08:21;;;;;;;;;;;;;;;;;;5093266;28;19930;-59
2022/02/28 00:10:47;;;;;;;;;;;;;;;;;;5093026;28;19957;-58
2022/02/28 00:13:14;;;;;;;;;;;;;;;;;;5092439;28;19943;-59
2022/02/28 00:15:40;;;;;;;;;;;;;;;;;;5092854;28;20371;-59
2022/02/28 00:18:07;;;;;;;;;;;;;;;;;;5092836;28;19908;-60
2022/02/28 00:20:33;;;;;;;;;;;;;;;;;;5092670;28;20015;-56
2022/02/28 00:23:00;;;;;;;;;;;;;;;;;;5092538;28;19923;-58
2022/02/28 00:25:26;;;;;;;;;;;;;;;;;;5092772;28;20377;-57
2022/02/28 00:27:54;;;;;;;;;;;;;;;;;;5092828;28;20327;-58
2022/02/28 00:30:20;;;;;;;;;;;;;;;;;;5092698;28;20354;-58
2022/02/28 00:32:47;;;;;;;;;;;;;;;;;;5093047;28;19912;-61
2022/02/28 00:35:13;;;;;;;;;;;;;;;;;;5092308;28;19915;-55
2022/02/28 00:37:40;;;;;;;;;;;;;;;;;;5092840;28;19960;-60
2022/02/28 00:40:06;;;;;;;;;;;;;;;;;;5092696;28;19916;-59
2022/02/28 00:42:32;;;;;;;;;;;;;;;;;;5092554;28;19940;-55
2022/02/28 00:44:59;;;;;;;;;;;;;;;;;;5092340;28;20021;-60
2022/02/28 00:47:25;;;;;;;;;;;;;;;;;;5092415;28;19977;-58
2022/02/28 00:49:52;;;;;;;;;;;;;;;;;;5096475;28;19974;-58
2022/02/28 00:52:18;;;;;;;;;;;;;;;;;;5096490;28;20331;-60
2022/02/28 00:54:45;;;;;;;;;;;;;;;;;;5096443;28;19950;-53
2022/02/28 00:57:11;;;;;;;;;;;;;;;;;;5095483;28;19973;-57
2022/02/28 00:59:38;;;;;;;;;;;;;;;;;;5096550;28;19939;-59
2022/02/28 01:02:04;;;;;;;;;;;;;;;;;;5096701;28;19912;-58
2022/02/28 01:04:31;;;;;;;;;;;;;;;;;;5096724;28;20331;-60
2022/02/28 01:06:57;;;;;;;;;;;;;;;;;;5096451;28;19908;-57
2022/02/28 01:09:24;;;;;;;;;;;;;;;;;;5096058;28;19999;-55
2022/02/28 01:11:50;;;;;;;;;;;;;;;;;;5095743;28;19912;-59
2022/02/28 01:14:17;;;;;;;;;;;;;;;;;;5095797;28;20026;-58
2022/02/28 01:16:43;;;;;;;;;;;;;;;;;;5096192;28;19915;-58
2022/02/28 01:19:10;;;;;;;;;;;;;;;;;;5095193;28;19912;-57
2022/02/28 01:21:36;;;;;;;;;;;;;;;;;;5095750;28;19931;-56
2022/02/28 01:24:02;;;;;;;;;;;;;;;;;;5095759;28;19915;-59
2022/02/28 01:26:29;;;;;;;;;;;;;;;;;;5096003;28;19908;-55
2022/02/28 01:28:55;;;;;;;;;;;;;;;;;;5095266;28;20368;-55
2022/02/28 01:31:22;;;;;;;;;;;;;;;;;;5096051;28;20308;-56
2022/02/28 01:33:48;;;;;;;;;;;;;;;;;;5095930;28;20269;-60
2022/02/28 01:36:15;;;;;;;;;;;;;;;;;;5095433;28;19908;-57
2022/02/28 01:38:41;;;;;;;;;;;;;;;;;;5095722;28;19950;-59
2022/02/28 01:41:08;;;;;;;;;;;;;;;;;;5092423;28;19961;-56
2022/02/28 01:43:34;;;;;;;;;;;;;;;;;;5095706;28;20378;-59
2022/02/28 01:46:00;;;;;;;;;;;;;;;;;;5095948;28;20415;-60
2022/02/28 01:48:27;;;;;;;;;;;;;;;;;;5096028;28;20297;-64
2022/02/28 01:50:53;;;;;;;;;;;;;;;;;;5095472;28;19934;-59
2022/02/28 01:53:20;;;;;;;;;;;;;;;;;;5095492;28;19970;-61
2022/02/28 01:55:46;;;;;;;;;;;;;;;;;;5095091;28;19916;-60
2022/02/28 01:58:13;;;;;;;;;;;;;;;;;;5095640;28;19947;-57
2022/02/28 02:00:39;;;;;;;;;;;;;;;;;;5094222;28;19916;-54
2022/02/28 02:03:06;;;;;;;;;;;;;;;;;;5095727;28;19969;-61
2022/02/28 02:05:32;;;;;;;;;;;;;;;;;;5095628;28;19954;-56
2022/02/28 02:07:58;;;;;;;;;;;;;;;;;;5095433;28;19990;-60
2022/02/28 02:10:25;;;;;;;;;;;;;;;;;;5095413;28;19908;-60
2022/02/28 02:12:51;;;;;;;;;;;;;;;;;;5094940;28;19909;-62
2022/02/28 02:15:18;;;;;;;;;;;;;;;;;;5094460;28;19908;-60
2022/02/28 02:17:44;;;;;;;;;;;;;;;;;;5094959;28;19998;-61
2022/02/28 02:20:11;;;;;;;;;;;;;;;;;;5094376;28;19939;-61
2022/02/28 02:22:37;;;;;;;;;;;;;;;;;;5094850;28;19908;-60
2022/02/28 02:25:04;;;;;;;;;;;;;;;;;;5094275;28;19915;-58
2022/02/28 02:27:30;;;;;;;;;;;;;;;;;;5094660;28;20006;-61
2022/02/28 02:29:56;;;;;;;;;;;;;;;;;;5094797;28;19908;-62
2022/02/28 02:32:23;;;;;;;;;;;;;;;;;;5104747;28;19908;-59
2022/02/28 02:34:49;;;;;;;;;;;;;;;;;;5114500;28;19912;-58
2022/02/28 02:37:16;;;;;;;;;;;;;;;;;;5114540;28;19907;-61
2022/02/28 02:39:42;;;;;;;;;;;;;;;;;;5096758;28;19924;-60
2022/02/28 02:42:09;;;;;;;;;;;;;;;;;;5091738;28;19914;-57
2022/02/28 02:44:35;;;;;;;;;;;;;;;;;;5088439;28;19973;-57
2022/02/28 02:47:02;;;;;;;;;;;;;;;;;;5090381;28;19951;-63
2022/02/28 02:49:29;;;;;;;;;;;;;;;;;;5089515;28;19916;-51
2022/02/28 02:51:55;;;;;;;;;;;;;;;;;;5091011;28;19991;-55
2022/02/28 02:54:22;;;;;;;;;;;;;;;;;;5091418;28;19915;-54
2022/02/28 02:56:48;;;;;;;;;;;;;;;;;;5090498;28;19915;-53
2022/02/28 02:59:15;;;;;;;;;;;;;;;;;;5093369;28;19920;-58
2022/02/28 03:01:41;;;;;;;;;;;;;;;;;;5091713;28;19991;-52
2022/02/28 03:04:08;;;;;;;;;;;;;;;;;;5092877;28;19960;-59
2022/02/28 03:06:35;;;;;;;;;;;;;;;;;;5092300;28;19915;-58
2022/02/28 03:09:01;;;;;;;;;;;;;;;;;;5093262;28;19908;-56
2022/02/28 03:11:27;;;;;;;;;;;;;;;;;;5093642;28;19908;-53
2022/02/28 03:13:54;;;;;;;;;;;;;;;;;;5093489;28;19908;-54
2022/02/28 03:16:20;;;;;;;;;;;;;;;;;;5093425;28;19912;-60
2022/02/28 03:18:47;;;;;;;;;;;;;;;;;;5093519;28;19908;-56
2022/02/28 03:21:14;;;;;;;;;;;;;;;;;;5092953;28;20008;-60
2022/02/28 03:23:40;;;;;;;;;;;;;;;;;;5092766;28;19912;-50
2022/02/28 03:26:07;;;;;;;;;;;;;;;;;;5091391;28;19995;-54
2022/02/28 03:28:33;;;;;;;;;;;;;;;;;;5093693;28;20285;-52
2022/02/28 03:31:00;;;;;;;;;;;;;;;;;;5093075;28;20114;-55
2022/02/28 03:33:26;;;;;;;;;;;;;;;;;;5092596;28;20023;-51
2022/02/28 03:35:53;;;;;;;;;;;;;;;;;;5092553;28;19912;-61
2022/02/28 03:38:19;;;;;;;;;;;;;;;;;;5092592;28;19915;-58
2022/02/28 03:40:48;;;;;;;;;;;;;;;;;;5093558;28;20007;-57
2022/02/28 03:43:18;;;;;;;;;;;;;;;;;;5093464;28;19973;-57
2022/02/28 03:45:45;;;;;;;;;;;;;;;;;;5093270;28;19908;-55
2022/02/28 03:48:11;;;;;;;;;;;;;;;;;;5093323;28;20354;-59
2022/02/28 03:50:38;;;;;;;;;;;;;;;;;;5093586;28;20005;-57
2022/02/28 03:53:04;;;;;;;;;;;;;;;;;;5094065;28;20009;-59
2022/02/28 03:55:31;;;;;;;;;;;;;;;;;;5092775;28;19918;-59
2022/02/28 03:57:57;;;;;;;;;;;;;;;;;;5093928;28;20030;-60
2022/02/28 04:00:24;;;;;;;;;;;;;;;;;;5092585;28;19935;-59
2022/02/28 04:02:51;;;;;;;;;;;;;;;;;;5093677;28;19977;-56
2022/02/28 04:05:17;;;;;;;;;;;;;;;;;;5093263;28;19911;-53
2022/02/28 04:07:44;;;;;;;;;;;;;;;;;;5094189;28;19951;-50
2022/02/28 04:10:10;;;;;;;;;;;;;;;;;;5093256;28;19912;-53
2022/02/28 04:12:37;;;;;;;;;;;;;;;;;;5092420;28;19912;-53
2022/02/28 04:15:03;;;;;;;;;;;;;;;;;;5092540;28;20278;-54
2022/02/28 04:17:30;;;;;;;;;;;;;;;;;;5092712;28;19908;-54
2022/02/28 04:19:56;;;;;;;;;;;;;;;;;;5092201;28;20017;-52
2022/02/28 04:22:26;;;;;;;;;;;;;;;;;;5092416;28;19936;-51
2022/02/28 04:24:52;;;;;;;;;;;;;;;;;;5093264;28;19915;-57
2022/02/28 04:27:19;;;;;;;;;;;;;;;;;;5086945;28;20028;-54
2022/02/28 04:29:46;;;;;;;;;;;;;;;;;;5090817;28;20360;-55
2022/02/28 04:32:13;;;;;;;;;;;;;;;;;;5090238;28;20628;-53
2022/02/28 04:34:39;;;;;;;;;;;;;;;;;;5090524;28;19930;-57
2022/02/28 04:37:06;;;;;;;;;;;;;;;;;;5088313;28;20423;-54
2022/02/28 04:39:32;;;;;;;;;;;;;;;;;;5087239;28;19912;-57
2022/02/28 04:41:59;;;;;;;;;;;;;;;;;;5088458;28;20008;-55
2022/02/28 04:44:25;;;;;;;;;;;;;;;;;;5088730;28;19909;-51
2022/02/28 04:46:52;;;;;;;;;;;;;;;;;;5090781;28;19989;-53
2022/02/28 04:49:21;;;;;;;;;;;;;;;;;;5086094;28;19941;-55
2022/02/28 04:51:48;;;;;;;;;;;;;;;;;;5087547;28;20335;-49
2022/02/28 04:54:14;;;;;;;;;;;;;;;;;;5089259;28;19939;-54
2022/02/28 04:56:42;;;;;;;;;;;;;;;;;;5088299;28;19912;-57
2022/02/28 04:59:08;;;;;;;;;;;;;;;;;;5084989;28;19924;-60
2022/02/28 05:01:35;;;;;;;;;;;;;;;;;;5089939;28;19916;-59
2022/02/28 05:04:01;;;;;;;;;;;;;;;;;;5091623;28;19908;-58
2022/02/28 05:06:28;;;;;;;;;;;;;;;;;;5091640;28;19908;-55
2022/02/28 05:08:54;;;;;;;;;;;;;;;;;;5092321;28;20345;-57
2022/02/28 05:11:20;;;;;;;;;;;;;;;;;;5092095;28;19912;-51
2022/02/28 05:13:47;;;;;;;;;;;;;;;;;;5092021;28;20315;-57
2022/02/28 05:16:13;;;;;;;;;;;;;;;;;;5091714;28;19908;-62
2022/02/28 05:18:40;;;;;;;;;;;;;;;;;;5092162;28;19912;-58
2022/02/28 05:21:06;;;;;;;;;;;;;;;;;;5091849;28;19916;-59
2022/02/28 05:23:33;;;;;;;;;;;;;;;;;;5091710;28;19912;-59
2022/02/28 05:25:59;;;;;;;;;;;;;;;;;;5092352;28;19908;-63
2022/02/28 05:28:26;;;;;;;;;;;;;;;;;;5084627;28;19985;-56
2022/02/28 05:30:52;;;;;;;;;;;;;;;;;;5090774;28;20385;-55
2022/02/28 05:33:22;;;;;;;;;;;;;;;;;;5088347;28;20325;-56
2022/02/28 05:35:51;;;;;;;;;;;;;;;;;;5088737;28;20270;-55
2022/02/28 05:38:17;;;;;;;;;;;;;;;;;;5091569;28;21037;-53
2022/02/28 05:40:46;;;;;;;;;;;;;;;;;;5091828;28;20681;-52
2022/02/28 05:43:12;;;;;;;;;;;;;;;;;;5092408;28;19923;-56
2022/02/28 05:45:39;;;;;;;;;;;;;;;;;;5090237;28;19909;-59
2022/02/28 05:48:05;;;;;;;;;;;;;;;;;;5093459;28;19916;-58
2022/02/28 05:50:32;;;;;;;;;;;;;;;;;;5091480;28;20007;-61
2022/02/28 05:53:00;;;;;;;;;;;;;;;;;;5091561;28;19908;-55
2022/02/28 05:55:27;;;;;;;;;;;;;;;;;;5085752;28;20014;-55
2022/02/28 05:57:54;;;;;;;;;;;;;;;;;;5091300;28;19966;-56
2022/02/28 06:00:29;;;;;;;;;;;;;;;;;;5091381;28;19920;-54
2022/02/28 06:02:56;;;;;;;;;;;;;;;;;;5091608;28;20005;-54
2022/02/28 06:05:22;;;;;;;;;;;;;;;;;;5087956;28;19991;-56
2022/02/28 06:07:49;;;;;;;;;;;;;;;;;;5091436;28;19920;-53
2022/02/28 06:10:15;;;;;;;;;;;;;;;;;;5091118;28;20060;-53
2022/02/28 06:12:42;;;;;;;;;;;;;;;;;;5091670;28;20071;-56
2022/02/28 06:15:09;;;;;;;;;;;;;;;;;;5089286;28;19993;-61
2022/02/28 06:17:36;;;;;;;;;;;;;;;;;;5091378;28;19908;-58
2022/02/28 06:20:02;;;;;;;;;;;;;;;;;;5090356;28;19916;-51
2022/02/28 06:22:30;;;;;;;;;;;;;;;;;;5091174;28;19916;-52
2022/02/28 06:24:57;;;;;;;;;;;;;;;;;;5090136;28;19916;-55
2022/02/28 06:27:25;;;;;;;;;;;;;;;;;;5090722;28;20277;-53
2022/02/28 06:29:51;;;;;;;;;;;;;;;;;;5088030;28;19920;-57
2022/02/28 06:32:19;;;;;;;;;;;;;;;;;;5091561;28;19977;-55
2022/02/28 06:34:45;;;;;;;;;;;;;;;;;;5087700;28;19961;-52
2022/02/28 06:37:12;;;;;;;;;;;;;;;;;;5090869;28;20011;-59
2022/02/28 06:39:38;;;;;;;;;;;;;;;;;;5090776;28;20003;-53
2022/02/28 06:42:05;;;;;;;;;;;;;;;;;;5090909;28;19919;-53
2022/02/28 06:44:31;;;;;;;;;;;;;;;;;;5090125;28;19935;-54
2022/02/28 06:46:58;;;;;;;;;;;;;;;;;;5088828;28;19935;-58
2022/02/28 06:49:24;;;;;;;;;;;;;;;;;;5089042;28;19912;-53
2022/02/28 06:51:51;;;;;;;;;;;;;;;;;;5090797;28;19955;-60
2022/02/28 06:54:17;;;;;;;;;;;;;;;;;;5089235;28;19923;-59
2022/02/28 06:56:44;;;;;;;;;;;;;;;;;;5088245;28;19916;-53
2022/02/28 06:59:10;;;;;;;;;;;;;;;;;;5090780;28;19924;-56
2022/02/28 07:01:37;;;;;;;;;;;;;;;;;;5090464;28;20007;-57
2022/02/28 07:04:03;;;;;;;;;;;;;;;;;;5089815;28;19957;-57
2022/02/28 07:06:30;;;;;;;;;;;;;;;;;;5087894;28;20406;-61
2022/02/28 07:08:56;;;;;;;;;;;;;;;;;;5093616;28;19908;-58
2022/02/28 07:11:23;;;;;;;;;;;;;;;;;;5093166;28;19908;-61
2022/02/28 07:13:49;;;;;;;;;;;;;;;;;;5093009;28;20052;-59
2022/02/28 07:16:16;;;;;;;;;;;;;;;;;;5093282;28;20016;-59
2022/02/28 07:18:42;;;;;;;;;;;;;;;;;;5093429;28;19908;-60
2022/02/28 07:21:09;;;;;;;;;;;;;;;;;;5093371;28;19916;-60
2022/02/28 07:23:35;;;;;;;;;;;;;;;;;;5093543;28;19989;-60
2022/02/28 07:26:02;;;;;;;;;;;;;;;;;;5093904;28;19907;-57
2022/02/28 07:28:28;;;;;;;;;;;;;;;;;;5093392;28;19985;-59
2022/02/28 07:30:55;;;;;;;;;;;;;;;;;;5093467;28;19908;-57
2022/02/28 07:33:21;;;;;;;;;;;;;;;;;;5093253;28;19939;-60
2022/02/28 07:35:47;;;;;;;;;;;;;;;;;;5093270;28;20045;-58
2022/02/28 07:38:15;;;;;;;;;;;;;;;;;;5093665;28;19991;-58
2022/02/28 07:40:41;;;;;;;;;;;;;;;;;;5092761;28;19926;-57
2022/02/28 07:43:08;;;;;;;;;;;;;;;;;;5093477;28;20015;-59
2022/02/28 07:45:34;;;;;;;;;;;;;;;;;;5093101;28;19915;-57
2022/02/28 07:48:01;;;;;;;;;;;;;;;;;;5093505;28;20360;-57
2022/02/28 07:50:27;;;;;;;;;;;;;;;;;;5092981;28;19969;-57
2022/02/28 07:52:54;;;;;;;;;;;;;;;;;;5092820;28;19919;-59
2022/02/28 07:55:20;;;;;;;;;;;;;;;;;;5093137;28;20002;-59
2022/02/28 07:57:47;;;;;;;;;;;;;;;;;;5091898;28;19976;-56
2022/02/28 08:00:13;;;;;;;;;;;;;;;;;;5092613;28;19920;-62
2022/02/28 08:02:40;;;;;;;;;;;;;;;;;;5092630;28;19916;-69
2022/02/28 08:05:06;;;;;;;;;;;;;;;;;;5093032;28;20017;-65
2022/02/28 08:07:32;;;;;;;;;;;;;;;;;;5092814;28;19947;-63
2022/02/28 08:09:59;;;;;;;;;;;;;;;;;;5092844;28;19954;-61
2022/02/28 08:12:25;;;;;;;;;;;;;;;;;;5092689;28;20354;-65
2022/02/28 08:14:52;;;;;;;;;;;;;;;;;;5092983;28;19916;-64
2022/02/28 08:17:19;;;;;;;;;;;;;;;;;;5092606;28;19953;-65
2022/02/28 08:19:45;;;;;;;;;;;;;;;;;;5092599;28;19924;-67
2022/02/28 08:22:11;;;;;;;;;;;;;;;;;;5092683;28;19958;-69
2022/02/28 08:24:38;;;;;;;;;;;;;;;;;;5092567;28;19912;-63
2022/02/28 08:27:04;;;;;;;;;;;;;;;;;;5085447;28;19916;-63
2022/02/28 08:29:33;;;;;;;;;;;;;;;;;;5089237;28;19916;-63
2022/02/28 08:32:00;;;;;;;;;;;;;;;;;;5088716;28;19921;-64
2022/02/28 08:34:26;;;;;;;;;;;;;;;;;;5088573;28;20006;-60
2022/02/28 08:36:53;;;;;;;;;;;;;;;;;;5088432;28;19915;-61
2022/02/28 08:39:19;;;;;;;;;;;;;;;;;;5088938;28;19953;-59
2022/02/28 08:41:46;;;;;;;;;;;;;;;;;;5089304;28;19938;-63
2022/02/28 08:44:12;;;;;;;;;;;;;;;;;;5087853;28;19917;-61
2022/02/28 08:46:39;;;;;;;;;;;;;;;;;;5089666;28;20367;-65
2022/02/28 08:49:05;;;;;;;;;;;;;;;;;;5089727;28;19908;-64
2022/02/28 08:51:32;;;;;;;;;;;;;;;;;;5089687;28;19918;-67
2022/02/28 08:53:58;;;;;;;;;;;;;;;;;;5085617;28;19915;-62
2022/02/28 08:56:25;;;;;;;;;;;;;;;;;;5090205;28;19951;-64
2022/02/28 08:58:51;;;;;;;;;;;;;;;;;;5089399;28;20239;-63
2022/02/28 09:01:17;;;;;;;;;;;;;;;;;;5088596;28;19970;-61
2022/02/28 09:03:44;;;;;;;;;;;;;;;;;;5088074;28;19955;-61
2022/02/28 09:06:10;;;;;;;;;;;;;;;;;;5081476;28;19944;-62
2022/02/28 09:08:37;;;;;;;;;;;;;;;;;;5089503;28;19908;-64
2022/02/28 09:11:03;;;;;;;;;;;;;;;;;;5091080;28;19958;-61
2022/02/28 09:13:30;;;;;;;;;;;;;;;;;;5093149;28;20024;-57
2022/02/28 09:15:57;;;;;;;;;;;;;;;;;;5088496;28;19919;-57
2022/02/28 09:18:24;;;;;;;;;;;;;;;;;;5085719;28;20384;-53
2022/02/28 09:20:50;;;;;;;;;;;;;;;;;;5092158;28;20857;-55
2022/02/28 09:23:17;;;;;;;;;;;;;;;;;;5094293;28;20316;-55
2022/02/28 09:25:43;;;;;;;;;;;;;;;;;;5094006;28;19931;-48
2022/02/28 09:28:09;;;;;;;;;;;;;;;;;;5094186;28;20007;-53
2022/02/28 09:30:36;;;;;;;;;;;;;;;;;;5094236;28;19908;-55
2022/02/28 09:33:02;;;;;;;;;;;;;;;;;;5094317;28;19908;-54
2022/02/28 09:35:29;;;;;;;;;;;;;;;;;;5094262;28;19938;-57
2022/02/28 09:37:55;;;;;;;;;;;;;;;;;;5094737;28;20316;-54
2022/02/28 09:40:22;;;;;;;;;;;;;;;;;;5094615;28;19924;-59
2022/02/28 09:42:48;;;;;;;;;;;;;;;;;;5094443;28;19908;-54
2022/02/28 09:45:15;;;;;;;;;;;;;;;;;;5094143;28;19958;-53
2022/02/28 09:47:41;;;;;;;;;;;;;;;;;;5094055;28;19909;-56
2022/02/28 09:50:08;;;;;;;;;;;;;;;;;;5094612;28;19912;-56
2022/02/28 09:52:34;;;;;;;;;;;;;;;;;;5093199;28;20010;-56
2022/02/28 09:55:00;;;;;;;;;;;;;;;;;;5093496;28;19912;-54
2022/02/28 09:57:27;;;;;;;;;;;;;;;;;;5093653;28;19976;-58
2022/02/28 09:59:54;;;;;;;;;;;;;;;;;;5093279;28;19965;-50
2022/02/28 10:02:20;;;;;;;;;;;;;;;;;;5091782;28;20434;-55
2022/02/28 10:04:48;;;;;;;;;;;;;;;;;;5088881;28;20327;-46
2022/02/28 10:07:14;;;;;;;;;;;;;;;;;;5091689;28;19907;-47
2022/02/28 10:09:40;;;;;;;;;;;;;;;;;;5091821;28;20370;-49
2022/02/28 10:12:07;;;;;;;;;;;;;;;;;;5091793;28;19946;-55
2022/02/28 10:14:34;;;;;;;;;;;;;;;;;;5088996;28;19924;-51
2022/02/28 10:17:00;;;;;;;;;;;;;;;;;;5091561;28;20390;-50
2022/02/28 10:19:29;;;;;;;;;;;;;;;;;;5091587;28;19908;-50
2022/02/28 10:21:55;;;;;;;;;;;;;;;;;;5090791;28;19924;-56
2022/02/28 10:24:21;;;;;;;;;;;;;;;;;;5089240;28;19960;-55
2022/02/28 10:26:48;;;;;;;;;;;;;;;;;;5091593;28;19912;-59
2022/02/28 10:29:14;;;;;;;;;;;;;;;;;;5092176;28;19908;-51
2022/02/28 10:31:41;;;;;;;;;;;;;;;;;;5091632;28;20010;-56
2022/02/28 10:34:07;;;;;;;;;;;;;;;;;;5089626;28;20373;-50
2022/02/28 10:36:34;;;;;;;;;;;;;;;;;;5091819;28;20565;-57
2022/02/28 10:39:04;;;;;;;;;;;;;;;;;;5091544;28;20281;-49
2022/02/28 10:41:31;;;;;;;;;;;;;;;;;;5091757;28;20291;-55
2022/02/28 10:43:57;;;;;;;;;;;;;;;;;;5090941;28;19908;-47
2022/02/28 10:46:24;;;;;;;;;;;;;;;;;;5090147;28;19961;-53
2022/02/28 10:48:50;;;;;;;;;;;;;;;;;;5090460;28;19912;-52
2022/02/28 10:51:17;;;;;;;;;;;;;;;;;;5091378;28;19908;-53
2022/02/28 10:53:43;;;;;;;;;;;;;;;;;;5091590;28;20041;-51
2022/02/28 10:56:10;;;;;;;;;;;;;;;;;;5089124;28;20355;-50
2022/02/28 10:58:36;;;;;;;;;;;;;;;;;;5089491;28;19942;-56
2022/02/28 11:01:12;;;;;;;;;;;;;;;;;;5091371;28;21208;-52
2022/02/28 11:03:38;;;;;;;;;;;;;;;;;;5091694;28;19912;-58
2022/02/28 11:06:05;;;;;;;;;;;;;;;;;;5088208;28;19916;-53
2022/02/28 11:08:31;;;;;;;;;;;;;;;;;;5093153;28;20005;-64
2022/02/28 11:10:57;;;;;;;;;;;;;;;;;;5093626;28;19909;-61
2022/02/28 11:13:24;;;;;;;;;;;;;;;;;;5092710;28;19908;-61
2022/02/28 11:15:50;;;;;;;;;;;;;;;;;;5094284;28;19919;-57
2022/02/28 11:18:20;;;;;;;;;;;;;;;;;;5094075;28;19908;-55
2022/02/28 11:20:47;;;;;;;;;;;;;;;;;;5093874;28;19923;-60
2022/02/28 11:23:18;;;;;;;;;;;;;;;;;;5094255;28;19908;-57
2022/02/28 11:25:45;;;;;;;;;;;;;;;;;;5093217;28;19916;-56
2022/02/28 11:28:11;;;;;;;;;;;;;;;;;;5087006;28;19958;-52
2022/02/28 11:30:38;;;;;;;;;;;;;;;;;;5090879;28;19916;-52
2022/02/28 11:33:05;;;;;;;;;;;;;;;;;;5092220;28;19916;-47
2022/02/28 11:35:31;;;;;;;;;;;;;;;;;;5090695;28;20203;-50
2022/02/28 11:37:58;;;;;;;;;;;;;;;;;;5089650;28;19977;-54
2022/02/28 11:40:24;;;;;;;;;;;;;;;;;;5090166;28;19923;-46
2022/02/28 11:42:50;;;;;;;;;;;;;;;;;;5089056;28;19912;-48
2022/02/28 11:45:17;;;;;;;;;;;;;;;;;;5091561;28;20011;-50
2022/02/28 11:47:43;;;;;;;;;;;;;;;;;;5090468;28;19915;-62
2022/02/28 11:50:10;;;;;;;;;;;;;;;;;;5090716;28;19908;-61
2022/02/28 11:52:37;;;;;;;;;;;;;;;;;;5090989;28;19912;-60
2022/02/28 11:55:03;;;;;;;;;;;;;;;;;;5089782;28;20359;-56
2022/02/28 11:57:30;;;;;;;;;;;;;;;;;;5093198;28;20294;-59
2022/02/28 11:59:56;;;;;;;;;;;;;;;;;;5093925;28;19988;-55
2022/02/28 12:02:27;;;;;;;;;;;;;;;;;;5092551;28;20237;-57
2022/02/28 12:04:54;;;;;;;;;;;;;;;;;;5093397;28;19977;-58
2022/02/28 12:07:20;;;;;;;;;;;;;;;;;;5093503;28;20006;-54
2022/02/28 12:09:47;;;;;;;;;;;;;;;;;;5093072;28;19908;-50
2022/02/28 12:12:13;;;;;;;;;;;;;;;;;;5092087;28;19911;-50
2022/02/28 12:14:40;;;;;;;;;;;;;;;;;;5092779;28;20021;-53
2022/02/28 12:19:50;;;;;;;;;;;;;;;;;;5092309;28;19965;-59
2022/02/28 12:22:17;;;;;;;;;;;;;;;;;;5093228;28;19915;-58
2022/02/28 12:24:43;;;;;;;;;;;;;;;;;;5093134;28;19908;-53
2022/02/28 12:27:10;;;;;;;;;;;;;;;;;;5093112;28;19908;-57
2022/02/28 12:29:36;;;;;;;;;;;;;;;;;;5093295;28;19931;-57
2022/02/28 12:32:03;;;;;;;;;;;;;;;;;;5087427;28;19927;-60
2022/02/28 12:34:29;;;;;;;;;;;;;;;;;;5091892;28;19912;-54
2022/02/28 12:36:56;;;;;;;;;;;;;;;;;;5089616;28;19982;-49
2022/02/28 12:39:22;;;;;;;;;;;;;;;;;;5090393;28;19912;-57
2022/02/28 12:41:51;;;;;;;;;;;;;;;;;;5088924;28;19916;-55
2022/02/28 12:44:18;;;;;;;;;;;;;;;;;;5091341;28;19991;-52
2022/02/28 12:46:45;;;;;;;;;;;;;;;;;;5093327;28;19922;-46
2022/02/28 12:49:11;;;;;;;;;;;;;;;;;;5094336;28;19915;-49
2022/02/28 12:51:40;;;;;;;;;;;;;;;;;;5094883;28;20003;-50
2022/02/28 12:54:06;;;;;;;;;;;;;;;;;;5093296;28;19908;-53
2022/02/28 12:56:33;;;;;;;;;;;;;;;;;;5093739;28;20326;-56
2022/02/28 12:58:59;;;;;;;;;;;;;;;;;;5093556;28;20339;-52
2022/02/28 13:01:26;;;;;;;;;;;;;;;;;;5094186;28;19975;-52
2022/02/28 13:03:52;;;;;;;;;;;;;;;;;;5089333;28;19954;-53
2022/02/28 13:06:19;;;;;;;;;;;;;;;;;;5093496;28;20760;-53
2022/02/28 13:08:45;;;;;;;;;;;;;;;;;;5093892;28;19908;-51
2022/02/28 13:11:13;;;;;;;;;;;;;;;;;;5093735;28;19908;-62
2022/02/28 13:13:40;;;;;;;;;;;;;;;;;;5090913;28;19930;-53
2022/02/28 13:16:06;;;;;;;;;;;;;;;;;;5094015;28;19931;-50
2022/02/28 13:18:32;;;;;;;;;;;;;;;;;;5093788;28;19915;-55
2022/02/28 13:20:59;;;;;;;;;;;;;;;;;;5092688;28;20330;-53
2022/02/28 13:23:25;;;;;;;;;;;;;;;;;;5090891;28;20282;-56
2022/02/28 13:25:52;;;;;;;;;;;;;;;;;;5093287;28;19915;-51
2022/02/28 13:28:18;;;;;;;;;;;;;;;;;;5093641;28;19909;-59
2022/02/28 13:30:45;;;;;;;;;;;;;;;;;;5093022;28;20361;-54
2022/02/28 13:33:11;;;;;;;;;;;;;;;;;;5091300;28;19966;-46
2022/02/28 13:35:40;;;;;;;;;;;;;;;;;;5093319;28;19912;-49
2022/02/28 13:38:06;;;;;;;;;;;;;;;;;;5093186;28;20309;-49
2022/02/28 13:40:32;;;;;;;;;;;;;;;;;;5092489;28;19964;-50
2022/02/28 13:43:00;;;;;;;;;;;;;;;;;;5090561;28;19908;-49
2022/02/28 13:45:29;;;;;;;;;;;;;;;;;;5093241;28;19936;-50
2022/02/28 13:47:59;;;;;;;;;;;;;;;;;;5091950;28;19908;-51
2022/02/28 13:50:25;;;;;;;;;;;;;;;;;;5093125;28;19908;-51
2022/02/28 13:52:52;;;;;;;;;;;;;;;;;;5089995;28;19908;-51
2022/02/28 13:55:18;;;;;;;;;;;;;;;;;;5091137;28;19909;-47
2022/02/28 13:57:45;;;;;;;;;;;;;;;;;;5091200;28;19920;-47
2022/02/28 14:00:12;;;;;;;;;;;;;;;;;;5092759;28;19923;-52
2022/02/28 14:02:38;;;;;;;;;;;;;;;;;;5090102;28;19916;-51
2022/02/28 14:05:05;;;;;;;;;;;;;;;;;;5092180;28;19918;-50
2022/02/28 14:07:31;;;;;;;;;;;;;;;;;;5092495;28;19927;-46
2022/02/28 14:09:58;;;;;;;;;;;;;;;;;;5092760;28;19908;-49
2022/02/28 14:12:24;;;;;;;;;;;;;;;;;;5090997;28;19919;-57
2022/02/28 14:14:54;;;;;;;;;;;;;;;;;;5091881;28;19912;-52
2022/02/28 14:17:21;;;;;;;;;;;;;;;;;;5092485;28;19916;-52
2022/02/28 14:19:48;;;;;;;;;;;;;;;;;;5092713;28;19912;-50
2022/02/28 14:22:14;;;;;;;;;;;;;;;;;;5089627;28;19908;-49
2022/02/28 14:24:41;;;;;;;;;;;;;;;;;;5092540;28;20015;-53
2022/02/28 14:27:07;;;;;;;;;;;;;;;;;;5092887;28;19909;-52
2022/02/28 14:29:34;;;;;;;;;;;;;;;;;;5092752;28;19908;-51
2022/02/28 14:32:01;;;;;;;;;;;;;;;;;;5088605;28;19916;-50
2022/02/28 14:34:31;;;;;;;;;;;;;;;;;;5092379;28;19917;-49
2022/02/28 14:36:58;;;;;;;;;;;;;;;;;;5091889;28;19923;-51
2022/02/28 14:39:24;;;;;;;;;;;;;;;;;;5092199;28;20359;-51
2022/02/28 14:41:51;;;;;;;;;;;;;;;;;;5089233;28;19920;-51
2022/02/28 14:44:17;;;;;;;;;;;;;;;;;;5091684;28;20030;-46
2022/02/28 14:46:44;;;;;;;;;;;;;;;;;;5093070;28;20269;-48
2022/02/28 14:49:10;;;;;;;;;;;;;;;;;;5091197;28;20394;-50
2022/02/28 14:51:36;;;;;;;;;;;;;;;;;;5091409;28;20301;-53
2022/02/28 14:54:03;;;;;;;;;;;;;;;;;;5090185;28;20355;-50
2022/02/28 14:56:29;;;;;;;;;;;;;;;;;;5091883;28;19915;-54
2022/02/28 14:58:56;;;;;;;;;;;;;;;;;;5091055;28;19923;-47
2022/02/28 15:01:22;;;;;;;;;;;;;;;;;;5092233;28;19916;-53
2022/02/28 15:03:49;;;;;;;;;;;;;;;;;;5089545;28;19916;-49
2022/02/28 15:06:15;;;;;;;;;;;;;;;;;;5091628;28;19916;-54
2022/02/28 15:08:42;;;;;;;;;;;;;;;;;;5091030;28;20375;-53
2022/02/28 15:11:08;;;;;;;;;;;;;;;;;;5090208;28;20366;-50
2022/02/28 15:13:35;;;;;;;;;;;;;;;;;;5088868;28;20040;-49
2022/02/28 15:16:01;;;;;;;;;;;;;;;;;;5090657;28;19960;-55
2022/02/28 15:18:28;;;;;;;;;;;;;;;;;;5091180;28;19931;-54
2022/02/28 15:20:54;;;;;;;;;;;;;;;;;;5091503;28;19916;-54
2022/02/28 15:23:21;;;;;;;;;;;;;;;;;;5086980;28;19932;-54
2022/02/28 15:25:47;;;;;;;;;;;;;;;;;;5090817;28;19915;-51
2022/02/28 15:28:14;;;;;;;;;;;;;;;;;;5091348;28;19954;-55
2022/02/28 15:30:40;;;;;;;;;;;;;;;;;;5091669;28;19919;-55
2022/02/28 15:33:07;;;;;;;;;;;;;;;;;;5088455;28;19908;-51
2022/02/28 15:35:33;;;;;;;;;;;;;;;;;;5091307;28;20004;-51
2022/02/28 15:38:00;;;;;;;;;;;;;;;;;;5090941;28;19908;-53
2022/02/28 15:40:26;;;;;;;;;;;;;;;;;;5090893;28;19969;-49
2022/02/28 15:42:53;;;;;;;;;;;;;;;;;;5092816;28;19948;-49
2022/02/28 15:45:21;;;;;;;;;;;;;;;;;;5094505;28;19908;-49
2022/02/28 15:47:49;;;;;;;;;;;;;;;;;;5093839;28;19965;-54
2022/02/28 15:50:16;;;;;;;;;;;;;;;;;;5093842;28;19953;-50
2022/02/28 15:52:43;;;;;;;;;;;;;;;;;;5093884;28;19916;-56
2022/02/28 15:55:09;;;;;;;;;;;;;;;;;;5093555;28;20277;-51
2022/02/28 15:57:36;;;;;;;;;;;;;;;;;;5093730;28;20409;-51
2022/02/28 16:00:02;;;;;;;;;;;;;;;;;;5093708;28;20354;-55
2022/02/28 16:02:29;;;;;;;;;;;;;;;;;;5093655;28;19908;-49
2022/02/28 16:04:55;;;;;;;;;;;;;;;;;;5093664;28;19978;-54
2022/02/28 16:07:22;;;;;;;;;;;;;;;;;;5093548;28;19915;-48
2022/02/28 16:09:48;;;;;;;;;;;;;;;;;;5092745;28;19951;-50
2022/02/28 16:12:15;;;;;;;;;;;;;;;;;;5093593;28;19999;-52
2022/02/28 16:14:41;;;;;;;;;;;;;;;;;;5092262;28;19912;-51
2022/02/28 16:17:08;;;;;;;;;;;;;;;;;;5093463;28;19908;-58
2022/02/28 16:19:34;;;;;;;;;;;;;;;;;;5092786;28;19960;-58
2022/02/28 16:22:01;;;;;;;;;;;;;;;;;;5093328;28;19952;-55
2022/02/28 16:24:27;;;;;;;;;;;;;;;;;;5093409;28;19930;-57
2022/02/28 16:26:53;;;;;;;;;;;;;;;;;;5093197;28;19919;-52
2022/02/28 16:29:20;;;;;;;;;;;;;;;;;;5093374;28;19909;-56
2022/02/28 16:31:46;;;;;;;;;;;;;;;;;;5093164;28;19908;-56
2022/02/28 16:34:13;;;;;;;;;;;;;;;;;;5093432;28;20381;-53
2022/02/28 16:36:39;;;;;;;;;;;;;;;;;;5093238;28;20350;-49
2022/02/28 16:39:06;;;;;;;;;;;;;;;;;;5093444;28;20254;-55
2022/02/28 16:41:32;;;;;;;;;;;;;;;;;;5093198;28;19984;-54
2022/02/28 16:43:59;;;;;;;;;;;;;;;;;;5093223;28;19909;-55